createdAt,value
2022-12-17T00:01:46.499Z,3.59
2022-12-17T00:04:33.990Z,3.57
2022-12-17T00:07:21.870Z,3.62
2022-12-17T00:10:07.194Z,3.64
2022-12-17T00:12:52.647Z,3.49
2022-12-17T00:15:41.724Z,3.54
2022-12-17T00:18:28.309Z,3.57
2022-12-17T00:21:13.595Z,3.62
2022-12-17T00:23:59.043Z,3.63
2022-12-17T00:26:44.273Z,3.60
2022-12-17T00:29:31.668Z,3.73
2022-12-17T00:32:16.963Z,3.74
2022-12-17T00:35:02.193Z,3.53
2022-12-17T00:37:50.136Z,3.42
2022-12-17T00:40:35.779Z,3.46
2022-12-17T00:43:21.880Z,3.58
2022-12-17T00:46:07.105Z,3.49
2022-12-17T00:48:52.146Z,3.30
2022-12-17T00:51:37.524Z,3.22
2022-12-17T00:54:22.943Z,3.04
2022-12-17T00:57:08.221Z,3.06
2022-12-17T00:59:53.498Z,3.00
2022-12-17T01:02:41.639Z,2.76
2022-12-17T01:05:26.833Z,2.95
2022-12-17T01:08:12.229Z,2.92
2022-12-17T01:11:02.697Z,2.86
2022-12-17T01:13:48.074Z,2.82
2022-12-17T01:16:33.541Z,2.82
2022-12-17T01:19:18.752Z,2.86
2022-12-17T01:22:04.128Z,3.05
2022-12-17T01:25:05.075Z,3.18
2022-12-17T01:27:52.800Z,3.20
2022-12-17T01:30:38.200Z,3.27
2022-12-17T01:33:23.860Z,3.25
2022-12-17T01:36:11.667Z,3.09
2022-12-17T01:38:56.892Z,3.04
2022-12-17T01:41:42.405Z,3.25
2022-12-17T01:44:46.774Z,3.37
2022-12-17T01:47:32.254Z,3.41
2022-12-17T01:50:21.161Z,3.48
2022-12-17T01:53:06.422Z,3.38
2022-12-17T01:55:51.756Z,3.45
2022-12-17T01:58:39.290Z,3.11
2022-12-17T02:01:24.862Z,3.16
2022-12-17T02:04:10.320Z,3.16
2022-12-17T02:06:55.717Z,2.92
2022-12-17T02:09:41.002Z,2.88
2022-12-17T02:12:35.810Z,3.12
2022-12-17T02:15:25.088Z,3.16
2022-12-17T02:18:11.440Z,3.11
2022-12-17T02:20:59.846Z,2.96
2022-12-17T02:24:05.110Z,2.99
2022-12-17T02:26:52.560Z,3.06
2022-12-17T02:29:37.830Z,2.98
2022-12-17T02:32:23.383Z,2.93
2022-12-17T02:35:09.271Z,2.91
2022-12-17T02:37:54.516Z,2.83
2022-12-17T02:40:40.303Z,2.79
2022-12-17T02:43:26.190Z,2.97
2022-12-17T02:46:11.810Z,3.01
2022-12-17T02:48:57.262Z,2.84
2022-12-17T02:51:56.756Z,3.04
2022-12-17T02:54:42.120Z,2.93
2022-12-17T02:57:27.269Z,2.89
2022-12-17T03:00:14.390Z,2.82
2022-12-17T03:03:00.199Z,2.71
2022-12-17T03:05:46.085Z,2.73
2022-12-17T03:08:51.958Z,2.59
2022-12-17T03:11:37.082Z,2.43
2022-12-17T03:14:22.384Z,2.21
2022-12-17T03:17:07.745Z,2.25
2022-12-17T03:19:53.011Z,2.39
2022-12-17T03:22:38.280Z,2.28
2022-12-17T03:25:26.350Z,2.10
2022-12-17T03:28:11.752Z,2.08
2022-12-17T03:30:57.142Z,2.04
2022-12-17T03:33:42.534Z,1.92
2022-12-17T03:36:27.866Z,1.88
2022-12-17T03:39:13.364Z,1.84
2022-12-17T03:41:58.672Z,1.67
2022-12-17T03:44:43.638Z,1.47
2022-12-17T03:47:28.912Z,1.44
2022-12-17T03:50:14.062Z,1.38
2022-12-17T03:52:59.215Z,1.23
2022-12-17T03:55:44.614Z,1.15
2022-12-17T03:58:32.355Z,1.20
2022-12-17T04:01:17.633Z,1.21
2022-12-17T04:04:02.987Z,1.35
2022-12-17T04:06:48.190Z,1.37
2022-12-17T04:09:33.390Z,1.57
2022-12-17T04:12:18.730Z,1.77
2022-12-17T04:15:03.858Z,1.80
2022-12-17T04:17:49.235Z,1.67
2022-12-17T04:20:34.537Z,1.58
2022-12-17T04:23:22.045Z,1.73
2022-12-17T04:26:09.878Z,1.83
2022-12-17T04:28:54.889Z,1.83
2022-12-17T04:31:40.265Z,1.69
2022-12-17T04:34:25.523Z,1.58
2022-12-17T04:37:13.330Z,1.49
2022-12-17T04:39:58.685Z,1.39
2022-12-17T04:42:44.183Z,1.17
2022-12-17T04:45:29.459Z,1.02
2022-12-17T04:48:21.525Z,1.11
2022-12-17T04:51:06.891Z,0.99
2022-12-17T04:53:54.301Z,0.93
2022-12-17T04:56:39.541Z,0.97
2022-12-17T04:59:24.807Z,1.03
2022-12-17T05:02:10.269Z,0.98
2022-12-17T05:04:55.770Z,1.05
2022-12-17T05:07:41.074Z,1.03
2022-12-17T05:10:31.093Z,1.03
2022-12-17T05:13:19.517Z,1.12
2022-12-17T05:16:04.822Z,0.90
2022-12-17T05:18:49.997Z,0.97
2022-12-17T05:21:35.338Z,0.76
2022-12-17T05:24:20.632Z,0.81
2022-12-17T05:27:08.503Z,1.02
2022-12-17T05:29:53.981Z,1.25
2022-12-17T05:32:41.615Z,1.31
2022-12-17T05:35:26.919Z,1.25
2022-12-17T05:38:12.272Z,1.25
2022-12-17T05:40:57.717Z,1.09
2022-12-17T05:43:43.221Z,1.01
2022-12-17T05:46:28.689Z,0.80
2022-12-17T05:49:14.105Z,0.94
2022-12-17T05:51:59.380Z,1.04
2022-12-17T05:54:44.530Z,1.18
2022-12-17T05:57:29.836Z,1.22
2022-12-17T06:00:15.273Z,1.16
2022-12-17T06:03:00.636Z,0.93
2022-12-17T06:05:55.898Z,0.86
2022-12-17T06:08:41.166Z,0.79
2022-12-17T06:11:26.509Z,0.67
2022-12-17T06:14:14.342Z,0.60
2022-12-17T06:16:59.625Z,0.49
2022-12-17T06:19:44.800Z,0.53
2022-12-17T06:22:29.787Z,0.48
2022-12-17T06:25:14.882Z,0.45
2022-12-17T06:28:00.086Z,0.68
2022-12-17T06:30:45.289Z,0.67
2022-12-17T06:33:33.296Z,0.61
2022-12-17T06:36:22.817Z,0.73
2022-12-17T06:39:10.077Z,0.90
2022-12-17T06:42:00.571Z,0.87
2022-12-17T06:44:47.351Z,0.77
2022-12-17T06:47:32.711Z,0.85
2022-12-17T06:50:21.077Z,0.89
2022-12-17T06:53:16.232Z,0.92
2022-12-17T06:56:01.418Z,0.99
2022-12-17T06:58:46.649Z,0.99
2022-12-17T07:01:31.842Z,0.86
2022-12-17T07:04:17.252Z,0.69
2022-12-17T07:07:02.619Z,0.72
2022-12-17T07:09:47.877Z,0.63
2022-12-17T07:12:33.197Z,0.73
2022-12-17T07:15:18.474Z,0.91
2022-12-17T07:18:13.029Z,0.93
2022-12-17T07:20:58.189Z,1.05
2022-12-17T07:23:43.627Z,1.24
2022-12-17T07:26:52.173Z,1.33
2022-12-17T07:29:40.731Z,1.35
2022-12-17T07:32:25.963Z,1.30
2022-12-17T07:35:12.734Z,1.27
2022-12-17T07:37:57.974Z,1.38
2022-12-17T07:40:43.293Z,1.23
2022-12-17T07:43:29.126Z,1.38
2022-12-17T07:46:14.510Z,1.42
2022-12-17T07:48:59.947Z,1.64
2022-12-17T07:51:45.238Z,1.43
2022-12-17T07:54:34.792Z,1.56
2022-12-17T07:57:19.986Z,1.63
2022-12-17T08:00:05.095Z,1.79
2022-12-17T08:02:52.990Z,1.89
2022-12-17T08:05:38.260Z,1.96
2022-12-17T08:08:31.497Z,1.99
2022-12-17T08:11:16.700Z,1.95
2022-12-17T08:14:06.363Z,1.78
2022-12-17T08:16:53.156Z,1.65
2022-12-17T08:19:42.467Z,1.88
2022-12-17T08:22:31.138Z,2.12
2022-12-17T08:25:19.268Z,2.15
2022-12-17T08:28:11.043Z,2.06
2022-12-17T08:31:10.336Z,2.07
2022-12-17T08:33:57.990Z,2.12
2022-12-17T08:36:45.690Z,2.22
2022-12-17T08:39:33.454Z,2.22
2022-12-17T08:42:18.945Z,2.36
2022-12-17T08:45:04.553Z,2.64
2022-12-17T08:47:50.089Z,2.81
2022-12-17T08:50:36.018Z,2.59
2022-12-17T08:53:21.794Z,2.41
2022-12-17T08:56:09.650Z,2.40
2022-12-17T08:58:59.134Z,2.73
2022-12-17T09:01:52.371Z,2.71
2022-12-17T09:04:40.968Z,2.78
2022-12-17T09:07:28.218Z,2.87
2022-12-17T09:10:15.747Z,3.14
2022-12-17T09:13:05.097Z,2.97
2022-12-17T09:15:51.085Z,3.05
2022-12-17T09:18:40.005Z,2.78
2022-12-17T09:21:26.012Z,2.53
2022-12-17T09:24:11.232Z,2.30
2022-12-17T09:26:56.599Z,2.58
2022-12-17T09:29:42.578Z,2.65
2022-12-17T09:32:31.068Z,2.73
2022-12-17T09:35:19.872Z,2.58
2022-12-17T09:38:10.278Z,2.55
2022-12-17T09:40:55.640Z,2.79
2022-12-17T09:43:57.424Z,2.43
2022-12-17T09:46:52.334Z,2.53
2022-12-17T09:49:44.492Z,2.54
2022-12-17T09:53:01.865Z,2.86
2022-12-17T09:55:57.219Z,2.85
2022-12-17T09:58:43.704Z,2.72
2022-12-17T10:01:35.340Z,2.81
2022-12-17T10:04:21.222Z,2.90
2022-12-17T10:07:12.060Z,2.66
2022-12-17T10:09:59.934Z,2.57
2022-12-17T10:12:47.323Z,2.50
2022-12-17T10:15:33.333Z,2.29
2022-12-17T10:18:23.607Z,1.97
2022-12-17T10:21:11.889Z,2.11
2022-12-17T10:23:57.372Z,2.05
2022-12-17T10:26:44.886Z,2.04
2022-12-17T10:29:34.314Z,2.12
2022-12-17T10:32:27.004Z,2.50
2022-12-17T10:35:12.203Z,2.58
2022-12-17T10:37:59.515Z,2.74
2022-12-17T10:40:47.171Z,2.55
2022-12-17T10:43:48.643Z,2.81
2022-12-17T10:46:42.361Z,2.90
2022-12-17T10:49:31.889Z,3.11
2022-12-17T10:52:20.858Z,3.39
2022-12-17T10:55:30.588Z,3.63
2022-12-17T10:58:22.097Z,3.92
2022-12-17T11:01:07.442Z,3.82
2022-12-17T11:04:06.459Z,4.37
2022-12-17T11:06:59.882Z,4.66
2022-12-17T11:09:51.751Z,4.52
2022-12-17T11:12:37.382Z,4.40
2022-12-17T11:15:41.413Z,4.38
2022-12-17T11:18:27.286Z,4.42
2022-12-17T11:21:49.565Z,4.33
2022-12-17T11:24:40.273Z,4.38
2022-12-17T11:27:26.040Z,4.77
2022-12-17T11:30:11.285Z,4.96
2022-12-17T11:32:56.598Z,5.33
2022-12-17T11:35:41.814Z,5.92
2022-12-17T11:38:30.217Z,6.16
2022-12-17T11:41:27.203Z,5.82
2022-12-17T11:44:20.080Z,5.97
2022-12-17T11:47:07.966Z,5.81
2022-12-17T11:49:57.040Z,5.84
2022-12-17T11:52:55.280Z,5.49
2022-12-17T11:55:52.096Z,5.16
2022-12-17T11:58:46.750Z,5.07
2022-12-17T12:01:53.904Z,4.89
2022-12-17T12:04:42.637Z,5.05
2022-12-17T12:07:30.938Z,4.43
2022-12-17T12:10:16.782Z,3.60
2022-12-17T12:13:06.410Z,3.43
2022-12-17T12:15:59.364Z,3.38
2022-12-17T12:18:53.486Z,2.70
2022-12-17T12:21:38.866Z,2.33
2022-12-17T12:24:42.352Z,1.99
2022-12-17T12:27:27.370Z,1.99
2022-12-17T12:30:19.173Z,1.81
2022-12-17T12:33:33.902Z,1.69
2022-12-17T12:36:19.813Z,1.52
2022-12-17T12:39:04.971Z,1.35
2022-12-17T12:42:13.618Z,1.42
2022-12-17T12:45:28.280Z,1.44
2022-12-17T12:48:40.569Z,1.34
2022-12-17T12:51:33.712Z,1.49
2022-12-17T12:54:21.063Z,1.56
2022-12-17T12:57:06.295Z,1.39
2022-12-17T12:59:54.738Z,1.50
2022-12-17T13:02:40.149Z,1.59
2022-12-17T13:08:58.151Z,2.02
2022-12-17T13:11:27.390Z,2.00
2022-12-17T13:14:03.750Z,1.84
2022-12-17T13:16:44.488Z,1.63
2022-12-17T13:19:39.876Z,1.60
2022-12-17T13:22:10.409Z,1.70
2022-12-17T13:24:39.423Z,1.73
2022-12-17T13:27:26.370Z,1.63
2022-12-17T13:29:52.906Z,1.45
2022-12-17T13:32:39.925Z,1.58
2022-12-17T13:35:30.832Z,1.59
2022-12-17T13:38:23.788Z,1.42
2022-12-17T13:40:56.348Z,1.58
2022-12-17T13:43:24.036Z,1.64
2022-12-17T13:45:51.573Z,1.43
2022-12-17T13:48:22.965Z,1.48
2022-12-17T13:50:53.974Z,1.31
2022-12-17T13:53:23.123Z,1.16
2022-12-17T13:55:51.472Z,1.16
2022-12-17T13:58:22.090Z,1.15
2022-12-17T14:00:48.718Z,1.24
2022-12-17T14:03:17.394Z,1.23
2022-12-17T14:05:44.025Z,1.43
2022-12-17T14:08:12.679Z,1.69
2022-12-17T14:10:39.340Z,1.52
2022-12-17T14:13:10.669Z,1.53
2022-12-17T14:15:37.550Z,1.79
2022-12-17T14:18:06.488Z,1.87
2022-12-17T14:20:36.635Z,1.69
2022-12-17T14:23:03.933Z,1.74
2022-12-17T14:25:31.265Z,1.82
2022-12-17T14:28:05.576Z,1.95
2022-12-17T14:30:32.113Z,1.91
2022-12-17T14:32:59.010Z,1.86
2022-12-17T14:35:29.830Z,2.01
2022-12-17T14:37:57.353Z,2.00
2022-12-17T14:40:24.248Z,1.95
2022-12-17T14:42:53.228Z,1.96
2022-12-17T14:45:20.189Z,1.80
2022-12-17T14:47:54.473Z,1.95
2022-12-17T14:50:23.412Z,1.94
2022-12-17T14:52:50.641Z,2.05
2022-12-17T14:55:28.045Z,2.24
2022-12-17T14:58:06.613Z,2.29
2022-12-17T15:00:33.538Z,2.38
2022-12-17T15:03:02.829Z,2.26
2022-12-17T15:05:29.605Z,2.21
2022-12-17T15:07:56.141Z,2.20
2022-12-17T15:10:25.751Z,1.99
2022-12-17T15:12:53.304Z,1.86
2022-12-17T15:15:22.082Z,1.81
2022-12-17T15:17:48.654Z,1.75
2022-12-17T15:20:21.565Z,1.71
2022-12-17T15:22:48.594Z,1.82
2022-12-17T15:25:16.627Z,1.89
2022-12-17T15:27:43.274Z,1.83
2022-12-17T15:30:10.448Z,1.85
2022-12-17T15:32:36.969Z,1.91
2022-12-17T15:35:03.539Z,1.94
2022-12-17T15:37:30.096Z,1.93
2022-12-17T15:40:02.187Z,1.94
2022-12-17T15:42:49.430Z,1.87
2022-12-17T15:45:18.964Z,1.83
2022-12-17T15:47:53.141Z,1.74
2022-12-17T15:50:19.706Z,1.64
2022-12-17T15:52:46.267Z,1.56
2022-12-17T15:55:12.831Z,1.38
2022-12-17T15:57:39.419Z,1.38
2022-12-17T16:00:06.381Z,1.44
2022-12-17T16:02:33.021Z,1.52
2022-12-17T16:05:03.429Z,1.50
2022-12-17T16:07:38.232Z,1.48
2022-12-17T16:10:10.127Z,1.40
2022-12-17T16:12:36.823Z,1.41
2022-12-17T16:15:04.832Z,1.48
2022-12-17T16:17:33.997Z,1.36
2022-12-17T16:20:02.948Z,1.37
2022-12-17T16:22:32.166Z,1.35
2022-12-17T16:25:03.575Z,1.37
2022-12-17T16:27:30.121Z,1.23
2022-12-17T16:29:56.918Z,1.25
2022-12-17T16:32:25.843Z,1.07
2022-12-17T16:34:52.427Z,1.00
2022-12-17T16:37:19.652Z,1.01
2022-12-17T16:39:46.227Z,0.96
2022-12-17T16:42:15.749Z,0.92
2022-12-17T16:44:45.342Z,0.75
2022-12-17T16:47:14.833Z,0.76
2022-12-17T16:49:41.419Z,0.75
2022-12-17T16:52:08.657Z,0.74
2022-12-17T16:54:35.227Z,0.82
2022-12-17T16:57:03.964Z,0.85
2022-12-17T16:59:33.430Z,0.87
2022-12-17T17:02:00.375Z,0.95
2022-12-17T17:04:28.517Z,0.87
2022-12-17T17:06:56.090Z,0.97
2022-12-17T17:09:25.394Z,0.92
2022-12-17T17:11:54.654Z,0.93
2022-12-17T17:14:26.310Z,0.79
2022-12-17T17:16:52.913Z,0.75
2022-12-17T17:19:20.608Z,0.70
2022-12-17T17:21:48.689Z,0.58
2022-12-17T17:24:21.340Z,0.44
2022-12-17T17:26:51.380Z,0.29
2022-12-17T17:29:25.572Z,0.39
2022-12-17T17:32:10.595Z,0.45
2022-12-17T17:34:38.463Z,0.47
2022-12-17T17:37:05.009Z,0.54
2022-12-17T17:39:34.727Z,0.62
2022-12-17T17:42:01.490Z,0.64
2022-12-17T17:44:28.039Z,0.64
2022-12-17T17:46:54.668Z,0.63
2022-12-17T17:49:22.314Z,0.60
2022-12-17T17:54:35.593Z,0.46
2022-12-17T17:57:04.673Z,0.60
2022-12-17T17:59:34.613Z,0.66
2022-12-17T18:02:01.948Z,0.57
2022-12-17T18:04:28.693Z,0.55
2022-12-17T18:09:48.893Z,0.67
2022-12-17T18:12:36.631Z,0.51
2022-12-17T18:15:18.920Z,0.52
2022-12-17T18:17:46.813Z,0.55
2022-12-17T18:20:16.518Z,0.56
2022-12-17T18:22:43.620Z,0.50
2022-12-17T18:25:10.887Z,0.45
2022-12-17T18:27:39.776Z,0.46
2022-12-17T18:30:06.784Z,0.47
2022-12-17T18:32:35.403Z,0.47
2022-12-17T18:35:04.995Z,0.50
2022-12-17T18:37:35.321Z,0.46
2022-12-17T18:40:02.063Z,0.52
2022-12-17T18:42:47.533Z,0.47
2022-12-17T18:45:14.233Z,0.46
2022-12-17T18:47:45.636Z,0.41
2022-12-17T18:50:15.167Z,0.40
2022-12-17T18:52:41.877Z,0.39
2022-12-17T18:55:13.945Z,0.38
2022-12-17T18:57:40.632Z,0.27
2022-12-17T19:00:07.562Z,0.22
2022-12-17T19:02:39.597Z,0.26
2022-12-17T19:05:06.527Z,0.32
2022-12-17T19:07:40.500Z,0.32
2022-12-17T19:10:12.250Z,0.33
2022-12-17T19:12:41.159Z,0.27
2022-12-17T19:15:08.041Z,0.32
2022-12-17T19:17:34.758Z,0.42
2022-12-17T19:20:10.941Z,0.48
2022-12-17T19:22:43.080Z,0.52
2022-12-17T19:25:13.300Z,0.47
2022-12-17T19:27:40.772Z,0.43
2022-12-17T19:30:07.777Z,0.42
2022-12-17T19:32:39.537Z,0.30
2022-12-17T19:35:11.277Z,0.33
2022-12-17T19:37:40.586Z,0.32
2022-12-17T19:40:07.468Z,0.30
2022-12-17T19:42:40.770Z,0.28
2022-12-17T19:45:07.677Z,0.28
2022-12-17T19:47:34.386Z,0.25
2022-12-17T19:50:01.030Z,0.32
2022-12-17T19:52:27.727Z,0.23
2022-12-17T19:55:07.971Z,0.23
2022-12-17T19:57:39.851Z,0.33
2022-12-17T20:00:06.722Z,0.49
2022-12-17T20:02:41.860Z,0.58
2022-12-17T20:05:11.411Z,0.54
2022-12-17T20:07:38.012Z,0.36
2022-12-17T20:10:05.222Z,0.35
2022-12-17T20:12:31.898Z,0.36
2022-12-17T20:15:04.343Z,0.39
2022-12-17T20:17:36.196Z,0.46
2022-12-17T20:20:06.194Z,0.59
2022-12-17T20:22:34.992Z,0.44
2022-12-17T20:25:04.910Z,0.29
2022-12-17T20:27:31.562Z,0.35
2022-12-17T20:30:00.629Z,0.47
2022-12-17T20:32:27.296Z,0.50
2022-12-17T20:34:57.722Z,0.56
2022-12-17T20:37:26.841Z,0.37
2022-12-17T20:39:53.493Z,0.45
2022-12-17T20:42:20.116Z,0.38
2022-12-17T20:44:53.099Z,0.31
2022-12-17T20:47:23.060Z,0.25
2022-12-17T20:49:52.725Z,0.31
2022-12-17T20:52:20.483Z,0.31
2022-12-17T20:54:51.817Z,0.19
2022-12-17T20:57:24.513Z,0.26
2022-12-17T21:00:02.531Z,0.38
2022-12-17T21:02:31.456Z,0.39
2022-12-17T21:04:58.591Z,0.35
2022-12-17T21:07:29.963Z,0.28
2022-12-17T21:10:04.161Z,0.23
2022-12-17T21:12:53.315Z,0.22
2022-12-17T21:15:19.926Z,0.25
2022-12-17T21:17:48.728Z,0.32
2022-12-17T21:20:18.479Z,0.37
2022-12-17T21:22:47.812Z,0.34
2022-12-17T21:25:17.214Z,0.30
2022-12-17T21:27:44.709Z,0.33
2022-12-17T21:30:16.801Z,0.35
2022-12-17T21:32:45.720Z,0.21
2022-12-17T21:35:14.236Z,0.15
2022-12-17T21:37:40.904Z,0.18
2022-12-17T21:40:10.536Z,0.24
2022-12-17T21:42:55.805Z,0.32
2022-12-17T21:45:22.345Z,0.30
2022-12-17T21:47:49.147Z,0.31
2022-12-17T21:50:15.880Z,0.37
2022-12-17T21:52:42.634Z,0.26
2022-12-17T21:55:09.652Z,0.20
2022-12-17T21:57:39.127Z,0.19
2022-12-17T22:00:06.090Z,0.16
2022-12-17T22:02:33.939Z,0.10
2022-12-17T22:05:01.518Z,0.19
2022-12-17T22:07:29.123Z,0.32
2022-12-17T22:10:26.246Z,0.27
2022-12-17T22:13:05.142Z,0.23
2022-12-17T22:15:47.206Z,0.25
2022-12-17T22:18:15.144Z,0.32
2022-12-17T22:20:43.619Z,0.35
2022-12-17T22:23:10.255Z,0.38
2022-12-17T22:25:42.576Z,0.38
2022-12-17T22:28:13.564Z,0.42
2022-12-17T22:31:01.685Z,0.42
2022-12-17T22:34:03.608Z,0.39
2022-12-17T22:38:26.997Z,0.22
2022-12-17T22:42:51.405Z,0.16
2022-12-17T22:44:31.458Z,0.07
2022-12-17T22:45:09.579Z,0.00
2022-12-17T22:47:45.033Z,-0.01
2022-12-17T22:50:11.845Z,0.07
2022-12-17T22:52:38.970Z,0.06
2022-12-17T22:55:06.292Z,0.12
2022-12-17T22:57:38.253Z,0.13
2022-12-17T23:00:11.640Z,0.06
2022-12-17T23:02:38.294Z,0.03
2022-12-17T23:05:07.250Z,0.03
2022-12-17T23:07:36.356Z,0.06
2022-12-17T23:10:03.086Z,-0.02
2022-12-17T23:12:48.259Z,0.03
2022-12-17T23:15:14.800Z,0.09
2022-12-17T23:17:41.366Z,0.03
2022-12-17T23:20:11.699Z,0.10
2022-12-17T23:22:38.327Z,-0.01
2022-12-17T23:25:05.542Z,0.06
2022-12-17T23:27:34.305Z,0.13
2022-12-17T23:30:00.869Z,0.12
2022-12-17T23:32:27.692Z,0.20
2022-12-17T23:34:54.687Z,0.28
2022-12-17T23:37:21.235Z,0.22
2022-12-17T23:39:47.814Z,0.18
2022-12-17T23:42:14.574Z,0.18
2022-12-17T23:44:44.101Z,0.17
2022-12-17T23:47:10.710Z,0.25
2022-12-17T23:49:39.807Z,0.17
2022-12-17T23:52:06.387Z,0.20
2022-12-17T23:54:36.055Z,0.14
2022-12-17T23:57:05.032Z,0.11
2022-12-17T23:59:33.927Z,0.15
